Monticello, Missouri
Current Conditions -  °F | °C
As of 8:55 PM on Monday 22 Dec 2014 (Local Time) from KEOK Reporting Station
Light Rain Light Rain  
Wind Chill:   Ceiling: 200
Heat Index:   Visibility: 2.5mi
Dew Point:   Wind: 8mph
Humidity: 100%   Direction: 130°SE
Pressure: 29.46"   Gusts: NA
Location:  40.12°N, 91.71°W
Report Text: KEOK 230255Z AUTO 13007KT 2 1/2SM -RA OVC002 07/07 A2946 RMK AO2 P0002
Loading
Personal Weather Stations






























Interactive Weather Map New forecast layout! Learn more

10-Day Weather Forecast

Advertisements
Track Severe Weather on mobile